sensor_id;sensor_type;location;lat;lon;timestamp;P1;durP1;ratioP1;P2;durP2;ratioP2
86172;SDS011;76822;46.880;8.642;2024-03-25T00:01:00;144.17;;;49.73;;
86172;SDS011;76822;46.880;8.642;2024-03-25T00:04:20;125.97;;;45.43;;
86172;SDS011;76822;46.880;8.642;2024-03-25T00:07:42;133.07;;;46.43;;
86172;SDS011;76822;46.880;8.642;2024-03-25T00:11:03;170.77;;;53.03;;
86172;SDS011;76822;46.880;8.642;2024-03-25T00:14:23;165.40;;;53.63;;
86172;SDS011;76822;46.880;8.642;2024-03-25T00:17:43;219.13;;;62.10;;
86172;SDS011;76822;46.880;8.642;2024-03-25T00:21:04;202.57;;;58.60;;
86172;SDS011;76822;46.880;8.642;2024-03-25T00:24:24;173.67;;;53.70;;
86172;SDS011;76822;46.880;8.642;2024-03-25T00:27:45;177.23;;;54.43;;
86172;SDS011;76822;46.880;8.642;2024-03-25T00:31:08;158.10;;;51.33;;
86172;SDS011;76822;46.880;8.642;2024-03-25T00:34:28;160.37;;;51.93;;
86172;SDS011;76822;46.880;8.642;2024-03-25T00:37:49;157.67;;;50.53;;
86172;SDS011;76822;46.880;8.642;2024-03-25T00:41:09;149.87;;;49.70;;
86172;SDS011;76822;46.880;8.642;2024-03-25T00:44:29;174.67;;;52.83;;
86172;SDS011;76822;46.880;8.642;2024-03-25T00:47:50;143.13;;;47.83;;
86172;SDS011;76822;46.880;8.642;2024-03-25T00:51:10;173.77;;;52.60;;
86172;SDS011;76822;46.880;8.642;2024-03-25T00:54:31;183.20;;;55.33;;
86172;SDS011;76822;46.880;8.642;2024-03-25T00:57:51;154.87;;;51.10;;
86172;SDS011;76822;46.880;8.642;2024-03-25T01:01:12;164.37;;;53.87;;
86172;SDS011;76822;46.880;8.642;2024-03-25T01:04:32;196.60;;;58.47;;
86172;SDS011;76822;46.880;8.642;2024-03-25T01:07:52;170.70;;;54.67;;
86172;SDS011;76822;46.880;8.642;2024-03-25T01:11:13;155.60;;;50.73;;
86172;SDS011;76822;46.880;8.642;2024-03-25T01:14:33;171.07;;;54.73;;
86172;SDS011;76822;46.880;8.642;2024-03-25T01:17:54;184.00;;;56.03;;
86172;SDS011;76822;46.880;8.642;2024-03-25T01:21:14;189.03;;;57.37;;
86172;SDS011;76822;46.880;8.642;2024-03-25T01:24:35;155.80;;;52.20;;
86172;SDS011;76822;46.880;8.642;2024-03-25T01:27:55;221.87;;;63.07;;
86172;SDS011;76822;46.880;8.642;2024-03-25T01:31:15;164.87;;;51.40;;
86172;SDS011;76822;46.880;8.642;2024-03-25T01:34:36;182.07;;;56.03;;
86172;SDS011;76822;46.880;8.642;2024-03-25T01:37:56;180.00;;;55.80;;
86172;SDS011;76822;46.880;8.642;2024-03-25T01:41:19;199.00;;;56.67;;
86172;SDS011;76822;46.880;8.642;2024-03-25T01:44:44;167.80;;;53.30;;
86172;SDS011;76822;46.880;8.642;2024-03-25T01:48:07;203.40;;;58.90;;
86172;SDS011;76822;46.880;8.642;2024-03-25T01:51:29;149.93;;;50.27;;
86172;SDS011;76822;46.880;8.642;2024-03-25T01:54:50;174.13;;;53.03;;
86172;SDS011;76822;46.880;8.642;2024-03-25T01:58:10;189.17;;;55.27;;
86172;SDS011;76822;46.880;8.642;2024-03-25T02:01:31;126.97;;;46.33;;
86172;SDS011;76822;46.880;8.642;2024-03-25T02:04:51;139.03;;;49.47;;
86172;SDS011;76822;46.880;8.642;2024-03-25T02:08:12;177.07;;;55.30;;
86172;SDS011;76822;46.880;8.642;2024-03-25T02:11:33;192.53;;;57.47;;
86172;SDS011;76822;46.880;8.642;2024-03-25T02:14:54;130.33;;;47.43;;
86172;SDS011;76822;46.880;8.642;2024-03-25T02:18:16;182.03;;;54.33;;
86172;SDS011;76822;46.880;8.642;2024-03-25T02:21:37;117.73;;;43.80;;
86172;SDS011;76822;46.880;8.642;2024-03-25T02:24:57;183.80;;;54.53;;
86172;SDS011;76822;46.880;8.642;2024-03-25T02:28:19;193.30;;;57.93;;
86172;SDS011;76822;46.880;8.642;2024-03-25T02:31:40;154.37;;;49.13;;
86172;SDS011;76822;46.880;8.642;2024-03-25T02:35:00;148.33;;;49.07;;
86172;SDS011;76822;46.880;8.642;2024-03-25T02:38:26;147.60;;;49.90;;
86172;SDS011;76822;46.880;8.642;2024-03-25T02:41:47;181.60;;;54.03;;
86172;SDS011;76822;46.880;8.642;2024-03-25T02:45:08;141.97;;;48.00;;
86172;SDS011;76822;46.880;8.642;2024-03-25T02:48:29;208.23;;;59.17;;
86172;SDS011;76822;46.880;8.642;2024-03-25T02:51:49;189.13;;;55.83;;
86172;SDS011;76822;46.880;8.642;2024-03-25T02:55:09;178.97;;;53.53;;
86172;SDS011;76822;46.880;8.642;2024-03-25T02:58:30;140.03;;;47.63;;
86172;SDS011;76822;46.880;8.642;2024-03-25T03:01:50;184.33;;;55.03;;
86172;SDS011;76822;46.880;8.642;2024-03-25T03:05:11;193.13;;;56.23;;
86172;SDS011;76822;46.880;8.642;2024-03-25T03:08:31;171.03;;;53.83;;
86172;SDS011;76822;46.880;8.642;2024-03-25T03:11:51;176.70;;;53.30;;
86172;SDS011;76822;46.880;8.642;2024-03-25T03:15:12;169.80;;;53.03;;
86172;SDS011;76822;46.880;8.642;2024-03-25T03:18:32;135.70;;;47.80;;
86172;SDS011;76822;46.880;8.642;2024-03-25T03:21:53;144.90;;;50.03;;
86172;SDS011;76822;46.880;8.642;2024-03-25T03:25:13;171.70;;;54.10;;
86172;SDS011;76822;46.880;8.642;2024-03-25T03:28:34;195.17;;;56.90;;
86172;SDS011;76822;46.880;8.642;2024-03-25T03:31:54;149.20;;;49.73;;
86172;SDS011;76822;46.880;8.642;2024-03-25T03:35:14;166.17;;;52.57;;
86172;SDS011;76822;46.880;8.642;2024-03-25T03:38:35;172.03;;;53.33;;
86172;SDS011;76822;46.880;8.642;2024-03-25T03:41:55;209.00;;;59.40;;
86172;SDS011;76822;46.880;8.642;2024-03-25T03:45:15;188.87;;;56.03;;
86172;SDS011;76822;46.880;8.642;2024-03-25T03:48:36;148.43;;;49.10;;
86172;SDS011;76822;46.880;8.642;2024-03-25T03:51:58;212.00;;;58.73;;
86172;SDS011;76822;46.880;8.642;2024-03-25T03:55:18;166.10;;;55.97;;
86172;SDS011;76822;46.880;8.642;2024-03-25T03:58:39;170.73;;;55.13;;
86172;SDS011;76822;46.880;8.642;2024-03-25T04:01:59;194.63;;;57.53;;
86172;SDS011;76822;46.880;8.642;2024-03-25T04:05:20;149.73;;;53.47;;
86172;SDS011;76822;46.880;8.642;2024-03-25T04:08:41;171.90;;;59.00;;
86172;SDS011;76822;46.880;8.642;2024-03-25T04:12:01;179.07;;;60.23;;
86172;SDS011;76822;46.880;8.642;2024-03-25T04:15:22;215.47;;;62.43;;
86172;SDS011;76822;46.880;8.642;2024-03-25T04:18:42;163.40;;;55.57;;
86172;SDS011;76822;46.880;8.642;2024-03-25T04:22:03;174.83;;;59.70;;
86172;SDS011;76822;46.880;8.642;2024-03-25T04:25:23;169.40;;;58.10;;
86172;SDS011;76822;46.880;8.642;2024-03-25T04:28:43;215.80;;;63.63;;
86172;SDS011;76822;46.880;8.642;2024-03-25T04:32:04;112.93;;;46.97;;
86172;SDS011;76822;46.880;8.642;2024-03-25T04:35:24;162.40;;;54.97;;
86172;SDS011;76822;46.880;8.642;2024-03-25T04:38:45;167.53;;;56.93;;
86172;SDS011;76822;46.880;8.642;2024-03-25T04:42:05;149.80;;;54.17;;
86172;SDS011;76822;46.880;8.642;2024-03-25T04:45:26;170.93;;;56.43;;
86172;SDS011;76822;46.880;8.642;2024-03-25T04:48:46;166.67;;;54.90;;
86172;SDS011;76822;46.880;8.642;2024-03-25T04:52:07;141.93;;;52.23;;
86172;SDS011;76822;46.880;8.642;2024-03-25T04:55:27;158.80;;;57.13;;
86172;SDS011;76822;46.880;8.642;2024-03-25T04:58:48;177.93;;;58.30;;
86172;SDS011;76822;46.880;8.642;2024-03-25T05:02:08;175.63;;;56.73;;
86172;SDS011;76822;46.880;8.642;2024-03-25T05:05:28;209.93;;;63.20;;
86172;SDS011;76822;46.880;8.642;2024-03-25T05:08:49;124.40;;;48.30;;
86172;SDS011;76822;46.880;8.642;2024-03-25T05:12:10;255.90;;;70.73;;
86172;SDS011;76822;46.880;8.642;2024-03-25T05:15:31;210.83;;;64.73;;
86172;SDS011;76822;46.880;8.642;2024-03-25T05:18:52;166.33;;;56.97;;
86172;SDS011;76822;46.880;8.642;2024-03-25T05:22:12;168.93;;;56.70;;
86172;SDS011;76822;46.880;8.642;2024-03-25T05:25:34;187.43;;;58.00;;
86172;SDS011;76822;46.880;8.642;2024-03-25T05:28:55;137.00;;;49.53;;
86172;SDS011;76822;46.880;8.642;2024-03-25T05:32:16;206.43;;;59.30;;
86172;SDS011;76822;46.880;8.642;2024-03-25T05:35:37;169.23;;;53.63;;
86172;SDS011;76822;46.880;8.642;2024-03-25T05:38:57;131.00;;;48.27;;
86172;SDS011;76822;46.880;8.642;2024-03-25T05:42:20;343.77;;;81.07;;
86172;SDS011;76822;46.880;8.642;2024-03-25T05:45:40;225.57;;;63.13;;
86172;SDS011;76822;46.880;8.642;2024-03-25T05:49:04;179.30;;;58.00;;
86172;SDS011;76822;46.880;8.642;2024-03-25T05:52:28;202.50;;;57.80;;
86172;SDS011;76822;46.880;8.642;2024-03-25T05:55:48;217.47;;;60.70;;
86172;SDS011;76822;46.880;8.642;2024-03-25T05:59:09;166.83;;;50.83;;
86172;SDS011;76822;46.880;8.642;2024-03-25T06:02:29;175.30;;;53.20;;
86172;SDS011;76822;46.880;8.642;2024-03-25T06:05:50;167.57;;;51.77;;
86172;SDS011;76822;46.880;8.642;2024-03-25T06:09:10;193.67;;;54.20;;
86172;SDS011;76822;46.880;8.642;2024-03-25T06:12:30;151.43;;;48.33;;
86172;SDS011;76822;46.880;8.642;2024-03-25T06:15:51;153.30;;;49.47;;
86172;SDS011;76822;46.880;8.642;2024-03-25T06:19:12;176.37;;;53.90;;
86172;SDS011;76822;46.880;8.642;2024-03-25T06:22:32;157.80;;;54.33;;
86172;SDS011;76822;46.880;8.642;2024-03-25T06:25:53;199.93;;;59.17;;
86172;SDS011;76822;46.880;8.642;2024-03-25T06:29:14;187.17;;;57.67;;
86172;SDS011;76822;46.880;8.642;2024-03-25T06:32:35;120.80;;;47.73;;
86172;SDS011;76822;46.880;8.642;2024-03-25T06:36:14;148.33;;;53.83;;
86172;SDS011;76822;46.880;8.642;2024-03-25T06:39:35;115.17;;;47.53;;
86172;SDS011;76822;46.880;8.642;2024-03-25T06:42:56;247.70;;;69.47;;
86172;SDS011;76822;46.880;8.642;2024-03-25T06:46:16;128.63;;;48.43;;
86172;SDS011;76822;46.880;8.642;2024-03-25T06:49:37;250.97;;;70.63;;
86172;SDS011;76822;46.880;8.642;2024-03-25T06:52:57;146.20;;;54.07;;
86172;SDS011;76822;46.880;8.642;2024-03-25T06:56:17;181.77;;;61.73;;
86172;SDS011;76822;46.880;8.642;2024-03-25T06:59:38;174.07;;;60.83;;
86172;SDS011;76822;46.880;8.642;2024-03-25T07:02:58;146.47;;;53.00;;
86172;SDS011;76822;46.880;8.642;2024-03-25T07:06:18;167.03;;;61.33;;
86172;SDS011;76822;46.880;8.642;2024-03-25T07:09:39;206.70;;;70.00;;
86172;SDS011;76822;46.880;8.642;2024-03-25T07:12:59;153.40;;;62.23;;
86172;SDS011;76822;46.880;8.642;2024-03-25T07:16:19;174.10;;;63.20;;
86172;SDS011;76822;46.880;8.642;2024-03-25T07:19:40;175.03;;;66.40;;
86172;SDS011;76822;46.880;8.642;2024-03-25T07:23:00;159.13;;;64.10;;
86172;SDS011;76822;46.880;8.642;2024-03-25T07:26:20;144.40;;;63.03;;
86172;SDS011;76822;46.880;8.642;2024-03-25T07:29:41;144.27;;;63.37;;
86172;SDS011;76822;46.880;8.642;2024-03-25T07:33:01;184.70;;;69.10;;
86172;SDS011;76822;46.880;8.642;2024-03-25T07:36:21;139.83;;;63.73;;
86172;SDS011;76822;46.880;8.642;2024-03-25T07:39:42;133.40;;;61.50;;
86172;SDS011;76822;46.880;8.642;2024-03-25T07:43:04;164.47;;;62.60;;
86172;SDS011;76822;46.880;8.642;2024-03-25T07:46:25;210.47;;;77.63;;
86172;SDS011;76822;46.880;8.642;2024-03-25T07:49:45;181.57;;;71.07;;
86172;SDS011;76822;46.880;8.642;2024-03-25T07:53:06;149.17;;;64.37;;
86172;SDS011;76822;46.880;8.642;2024-03-25T07:56:26;155.03;;;62.03;;
86172;SDS011;76822;46.880;8.642;2024-03-25T07:59:46;182.60;;;68.20;;
86172;SDS011;76822;46.880;8.642;2024-03-25T08:03:07;156.57;;;62.43;;
86172;SDS011;76822;46.880;8.642;2024-03-25T08:06:28;148.27;;;58.93;;
86172;SDS011;76822;46.880;8.642;2024-03-25T08:09:48;185.37;;;66.57;;
86172;SDS011;76822;46.880;8.642;2024-03-25T08:13:08;181.73;;;68.63;;
86172;SDS011;76822;46.880;8.642;2024-03-25T08:16:29;185.50;;;71.70;;
86172;SDS011;76822;46.880;8.642;2024-03-25T08:19:49;202.60;;;73.57;;
86172;SDS011;76822;46.880;8.642;2024-03-25T08:23:09;157.50;;;66.23;;
86172;SDS011;76822;46.880;8.642;2024-03-25T08:26:30;157.40;;;67.77;;
86172;SDS011;76822;46.880;8.642;2024-03-25T08:29:50;156.97;;;67.10;;
86172;SDS011;76822;46.880;8.642;2024-03-25T08:33:13;124.30;;;62.70;;
86172;SDS011;76822;46.880;8.642;2024-03-25T08:36:33;198.60;;;77.23;;
86172;SDS011;76822;46.880;8.642;2024-03-25T08:39:54;154.50;;;70.63;;
86172;SDS011;76822;46.880;8.642;2024-03-25T08:43:14;182.20;;;73.47;;
86172;SDS011;76822;46.880;8.642;2024-03-25T08:46:34;142.13;;;66.10;;
86172;SDS011;76822;46.880;8.642;2024-03-25T08:49:55;146.73;;;68.60;;
86172;SDS011;76822;46.880;8.642;2024-03-25T08:53:16;191.00;;;76.40;;
86172;SDS011;76822;46.880;8.642;2024-03-25T08:56:36;177.07;;;73.67;;
86172;SDS011;76822;46.880;8.642;2024-03-25T08:59:57;184.73;;;73.97;;
86172;SDS011;76822;46.880;8.642;2024-03-25T09:03:18;136.77;;;79.10;;
86172;SDS011;76822;46.880;8.642;2024-03-25T09:06:38;140.07;;;78.10;;
86172;SDS011;76822;46.880;8.642;2024-03-25T09:09:59;157.23;;;81.07;;
86172;SDS011;76822;46.880;8.642;2024-03-25T09:13:38;164.20;;;85.13;;
86172;SDS011;76822;46.880;8.642;2024-03-25T09:16:58;200.33;;;91.17;;
86172;SDS011;76822;46.880;8.642;2024-03-25T09:20:19;184.20;;;85.63;;
86172;SDS011;76822;46.880;8.642;2024-03-25T09:23:40;166.47;;;85.47;;
86172;SDS011;76822;46.880;8.642;2024-03-25T09:27:01;174.40;;;84.03;;
86172;SDS011;76822;46.880;8.642;2024-03-25T09:30:21;128.43;;;78.93;;
86172;SDS011;76822;46.880;8.642;2024-03-25T09:33:41;194.17;;;91.17;;
86172;SDS011;76822;46.880;8.642;2024-03-25T09:37:04;148.23;;;79.47;;
86172;SDS011;76822;46.880;8.642;2024-03-25T09:40:24;192.57;;;86.60;;
86172;SDS011;76822;46.880;8.642;2024-03-25T09:43:48;150.83;;;79.60;;
86172;SDS011;76822;46.880;8.642;2024-03-25T09:47:14;140.77;;;76.00;;
86172;SDS011;76822;46.880;8.642;2024-03-25T09:50:34;168.60;;;79.87;;
86172;SDS011;76822;46.880;8.642;2024-03-25T09:53:56;143.73;;;75.87;;
86172;SDS011;76822;46.880;8.642;2024-03-25T09:57:18;170.50;;;79.67;;
86172;SDS011;76822;46.880;8.642;2024-03-25T10:00:39;130.70;;;74.27;;
86172;SDS011;76822;46.880;8.642;2024-03-25T10:04:00;199.93;;;89.10;;
86172;SDS011;76822;46.880;8.642;2024-03-25T10:07:22;186.50;;;87.63;;
86172;SDS011;76822;46.880;8.642;2024-03-25T10:10:43;177.27;;;86.20;;
86172;SDS011;76822;46.880;8.642;2024-03-25T10:14:05;158.87;;;82.03;;
86172;SDS011;76822;46.880;8.642;2024-03-25T10:17:27;170.60;;;82.83;;
86172;SDS011;76822;46.880;8.642;2024-03-25T10:20:48;187.80;;;86.37;;
86172;SDS011;76822;46.880;8.642;2024-03-25T10:24:09;159.90;;;81.03;;
86172;SDS011;76822;46.880;8.642;2024-03-25T10:27:29;197.97;;;87.37;;
86172;SDS011;76822;46.880;8.642;2024-03-25T10:30:49;135.40;;;80.83;;
86172;SDS011;76822;46.880;8.642;2024-03-25T10:34:10;143.20;;;82.00;;
86172;SDS011;76822;46.880;8.642;2024-03-25T10:37:30;180.97;;;95.30;;
86172;SDS011;76822;46.880;8.642;2024-03-25T10:40:51;157.37;;;90.30;;
86172;SDS011;76822;46.880;8.642;2024-03-25T10:44:14;162.80;;;90.13;;
86172;SDS011;76822;46.880;8.642;2024-03-25T10:47:36;169.07;;;93.97;;
86172;SDS011;76822;46.880;8.642;2024-03-25T10:50:58;124.27;;;87.00;;
86172;SDS011;76822;46.880;8.642;2024-03-25T10:54:21;170.47;;;99.60;;
86172;SDS011;76822;46.880;8.642;2024-03-25T10:57:42;163.43;;;96.80;;
86172;SDS011;76822;46.880;8.642;2024-03-25T11:01:05;182.37;;;98.23;;
86172;SDS011;76822;46.880;8.642;2024-03-25T11:04:27;195.97;;;101.73;;
86172;SDS011;76822;46.880;8.642;2024-03-25T11:07:48;174.60;;;102.50;;
86172;SDS011;76822;46.880;8.642;2024-03-25T11:11:08;147.10;;;97.63;;
86172;SDS011;76822;46.880;8.642;2024-03-25T11:14:29;166.20;;;101.00;;
86172;SDS011;76822;46.880;8.642;2024-03-25T11:17:52;160.93;;;112.93;;
86172;SDS011;76822;46.880;8.642;2024-03-25T11:21:12;208.30;;;124.70;;
86172;SDS011;76822;46.880;8.642;2024-03-25T11:24:32;189.07;;;123.10;;
86172;SDS011;76822;46.880;8.642;2024-03-25T11:27:56;153.53;;;116.77;;
86172;SDS011;76822;46.880;8.642;2024-03-25T11:31:17;180.75;;;131.02;;
86172;SDS011;76822;46.880;8.642;2024-03-25T11:34:49;173.50;;;132.07;;
86172;SDS011;76822;46.880;8.642;2024-03-25T11:38:10;158.52;;;132.68;;
86172;SDS011;76822;46.880;8.642;2024-03-25T11:41:33;177.20;;;132.23;;
86172;SDS011;76822;46.880;8.642;2024-03-25T11:44:55;156.63;;;114.00;;
86172;SDS011;76822;46.880;8.642;2024-03-25T11:48:16;147.20;;;113.20;;
86172;SDS011;76822;46.880;8.642;2024-03-25T11:51:37;182.15;;;114.78;;
86172;SDS011;76822;46.880;8.642;2024-03-25T11:55:00;163.27;;;118.88;;
86172;SDS011;76822;46.880;8.642;2024-03-25T11:58:21;144.55;;;118.90;;
86172;SDS011;76822;46.880;8.642;2024-03-25T12:01:41;193.30;;;120.67;;
86172;SDS011;76822;46.880;8.642;2024-03-25T12:05:02;176.13;;;121.85;;
86172;SDS011;76822;46.880;8.642;2024-03-25T12:08:22;193.43;;;128.97;;
86172;SDS011;76822;46.880;8.642;2024-03-25T12:11:46;186.87;;;123.87;;
86172;SDS011;76822;46.880;8.642;2024-03-25T12:15:08;189.57;;;121.30;;
86172;SDS011;76822;46.880;8.642;2024-03-25T12:18:29;175.57;;;107.83;;
86172;SDS011;76822;46.880;8.642;2024-03-25T12:21:49;168.83;;;109.60;;
86172;SDS011;76822;46.880;8.642;2024-03-25T12:25:10;144.67;;;103.43;;
86172;SDS011;76822;46.880;8.642;2024-03-25T12:28:31;206.57;;;114.47;;
86172;SDS011;76822;46.880;8.642;2024-03-25T12:31:57;165.40;;;113.00;;
86172;SDS011;76822;46.880;8.642;2024-03-25T12:35:18;169.73;;;115.45;;
86172;SDS011;76822;46.880;8.642;2024-03-25T12:38:42;145.53;;;128.93;;
86172;SDS011;76822;46.880;8.642;2024-03-25T12:42:06;187.07;;;138.68;;
86172;SDS011;76822;46.880;8.642;2024-03-25T12:45:26;188.77;;;144.07;;
86172;SDS011;76822;46.880;8.642;2024-03-25T12:48:48;180.10;;;131.80;;
86172;SDS011;76822;46.880;8.642;2024-03-25T12:52:09;235.37;;;140.40;;
86172;SDS011;76822;46.880;8.642;2024-03-25T12:55:29;216.27;;;125.13;;
86172;SDS011;76822;46.880;8.642;2024-03-25T12:58:50;183.87;;;111.77;;
86172;SDS011;76822;46.880;8.642;2024-03-25T13:02:12;169.40;;;112.03;;
86172;SDS011;76822;46.880;8.642;2024-03-25T13:05:32;175.23;;;118.83;;
86172;SDS011;76822;46.880;8.642;2024-03-25T13:08:53;212.03;;;116.73;;
86172;SDS011;76822;46.880;8.642;2024-03-25T13:12:13;189.33;;;100.90;;
86172;SDS011;76822;46.880;8.642;2024-03-25T13:15:33;144.70;;;85.37;;
86172;SDS011;76822;46.880;8.642;2024-03-25T13:18:54;162.37;;;81.80;;
86172;SDS011;76822;46.880;8.642;2024-03-25T13:22:14;198.17;;;85.00;;
86172;SDS011;76822;46.880;8.642;2024-03-25T13:25:34;157.73;;;77.47;;
86172;SDS011;76822;46.880;8.642;2024-03-25T13:28:55;129.53;;;77.07;;
86172;SDS011;76822;46.880;8.642;2024-03-25T13:32:15;212.70;;;93.93;;
86172;SDS011;76822;46.880;8.642;2024-03-25T13:35:35;126.33;;;76.37;;
86172;SDS011;76822;46.880;8.642;2024-03-25T13:38:58;181.53;;;82.20;;
86172;SDS011;76822;46.880;8.642;2024-03-25T13:42:18;256.00;;;97.73;;
86172;SDS011;76822;46.880;8.642;2024-03-25T13:45:45;155.53;;;77.20;;
86172;SDS011;76822;46.880;8.642;2024-03-25T13:49:07;207.67;;;89.07;;
86172;SDS011;76822;46.880;8.642;2024-03-25T13:52:28;192.47;;;82.20;;
86172;SDS011;76822;46.880;8.642;2024-03-25T13:55:49;187.17;;;86.17;;
86172;SDS011;76822;46.880;8.642;2024-03-25T13:59:09;225.57;;;92.17;;
86172;SDS011;76822;46.880;8.642;2024-03-25T14:02:30;172.67;;;81.47;;
86172;SDS011;76822;46.880;8.642;2024-03-25T14:05:51;201.70;;;87.60;;
86172;SDS011;76822;46.880;8.642;2024-03-25T14:09:22;183.30;;;84.10;;
86172;SDS011;76822;46.880;8.642;2024-03-25T14:12:44;183.33;;;80.23;;
86172;SDS011;76822;46.880;8.642;2024-03-25T14:16:05;128.93;;;70.37;;
86172;SDS011;76822;46.880;8.642;2024-03-25T14:19:25;199.20;;;81.10;;
86172;SDS011;76822;46.880;8.642;2024-03-25T14:22:46;152.73;;;72.67;;
86172;SDS011;76822;46.880;8.642;2024-03-25T14:26:06;177.63;;;76.73;;
86172;SDS011;76822;46.880;8.642;2024-03-25T14:29:26;153.83;;;72.77;;
86172;SDS011;76822;46.880;8.642;2024-03-25T14:32:47;181.27;;;75.13;;
86172;SDS011;76822;46.880;8.642;2024-03-25T14:36:07;178.40;;;76.63;;
86172;SDS011;76822;46.880;8.642;2024-03-25T14:39:28;159.83;;;73.20;;
86172;SDS011;76822;46.880;8.642;2024-03-25T14:42:48;134.67;;;65.27;;
86172;SDS011;76822;46.880;8.642;2024-03-25T14:46:08;240.67;;;86.80;;
86172;SDS011;76822;46.880;8.642;2024-03-25T14:49:29;234.57;;;86.10;;
86172;SDS011;76822;46.880;8.642;2024-03-25T14:52:50;199.33;;;79.43;;
86172;SDS011;76822;46.880;8.642;2024-03-25T14:56:10;239.97;;;86.50;;
86172;SDS011;76822;46.880;8.642;2024-03-25T14:59:30;166.03;;;73.90;;
86172;SDS011;76822;46.880;8.642;2024-03-25T15:02:51;220.10;;;82.43;;
86172;SDS011;76822;46.880;8.642;2024-03-25T15:06:11;214.73;;;80.10;;
86172;SDS011;76822;46.880;8.642;2024-03-25T15:09:32;238.23;;;81.37;;
86172;SDS011;76822;46.880;8.642;2024-03-25T15:12:53;210.20;;;76.77;;
86172;SDS011;76822;46.880;8.642;2024-03-25T15:16:14;202.43;;;75.47;;
86172;SDS011;76822;46.880;8.642;2024-03-25T15:19:34;199.43;;;78.13;;
86172;SDS011;76822;46.880;8.642;2024-03-25T15:22:55;213.83;;;80.03;;
86172;SDS011;76822;46.880;8.642;2024-03-25T15:26:15;231.43;;;77.13;;
86172;SDS011;76822;46.880;8.642;2024-03-25T15:29:35;253.90;;;85.70;;
86172;SDS011;76822;46.880;8.642;2024-03-25T15:32:56;203.93;;;74.57;;
86172;SDS011;76822;46.880;8.642;2024-03-25T15:36:16;169.43;;;67.67;;
86172;SDS011;76822;46.880;8.642;2024-03-25T15:39:37;256.67;;;86.47;;
86172;SDS011;76822;46.880;8.642;2024-03-25T15:42:58;227.23;;;84.47;;
86172;SDS011;76822;46.880;8.642;2024-03-25T15:46:21;189.37;;;72.53;;
86172;SDS011;76822;46.880;8.642;2024-03-25T15:49:46;186.70;;;71.90;;
86172;SDS011;76822;46.880;8.642;2024-03-25T15:53:07;233.47;;;82.40;;
86172;SDS011;76822;46.880;8.642;2024-03-25T15:56:27;185.60;;;77.77;;
86172;SDS011;76822;46.880;8.642;2024-03-25T15:59:47;154.67;;;71.17;;
86172;SDS011;76822;46.880;8.642;2024-03-25T16:03:08;162.97;;;68.73;;
86172;SDS011;76822;46.880;8.642;2024-03-25T16:06:29;165.60;;;67.67;;
86172;SDS011;76822;46.880;8.642;2024-03-25T16:09:49;148.80;;;67.00;;
86172;SDS011;76822;46.880;8.642;2024-03-25T16:13:09;141.37;;;68.67;;
86172;SDS011;76822;46.880;8.642;2024-03-25T16:16:30;180.47;;;72.33;;
86172;SDS011;76822;46.880;8.642;2024-03-25T16:19:50;168.20;;;66.00;;
86172;SDS011;76822;46.880;8.642;2024-03-25T16:23:11;157.17;;;65.20;;
86172;SDS011;76822;46.880;8.642;2024-03-25T16:26:31;138.77;;;60.60;;
86172;SDS011;76822;46.880;8.642;2024-03-25T16:29:52;163.57;;;70.30;;
86172;SDS011;76822;46.880;8.642;2024-03-25T16:33:12;151.13;;;65.20;;
86172;SDS011;76822;46.880;8.642;2024-03-25T16:36:33;195.67;;;72.43;;
86172;SDS011;76822;46.880;8.642;2024-03-25T16:39:53;167.30;;;71.13;;
86172;SDS011;76822;46.880;8.642;2024-03-25T16:43:13;169.83;;;68.77;;
86172;SDS011;76822;46.880;8.642;2024-03-25T16:46:34;180.83;;;73.70;;
86172;SDS011;76822;46.880;8.642;2024-03-25T16:49:55;143.97;;;64.53;;
86172;SDS011;76822;46.880;8.642;2024-03-25T16:53:16;139.20;;;65.67;;
86172;SDS011;76822;46.880;8.642;2024-03-25T16:56:37;165.23;;;69.67;;
86172;SDS011;76822;46.880;8.642;2024-03-25T16:59:57;141.90;;;66.67;;
86172;SDS011;76822;46.880;8.642;2024-03-25T17:03:17;151.57;;;64.67;;
86172;SDS011;76822;46.880;8.642;2024-03-25T17:06:38;133.73;;;60.73;;
86172;SDS011;76822;46.880;8.642;2024-03-25T17:09:58;164.67;;;67.10;;
86172;SDS011;76822;46.880;8.642;2024-03-25T17:13:18;182.70;;;71.43;;
86172;SDS011;76822;46.880;8.642;2024-03-25T17:16:39;156.63;;;64.63;;
86172;SDS011;76822;46.880;8.642;2024-03-25T17:19:59;148.70;;;65.17;;
86172;SDS011;76822;46.880;8.642;2024-03-25T17:23:20;145.83;;;64.00;;
86172;SDS011;76822;46.880;8.642;2024-03-25T17:26:40;146.73;;;60.00;;
86172;SDS011;76822;46.880;8.642;2024-03-25T17:30:01;170.23;;;62.73;;
86172;SDS011;76822;46.880;8.642;2024-03-25T17:33:23;163.27;;;65.77;;
86172;SDS011;76822;46.880;8.642;2024-03-25T17:36:44;124.80;;;57.13;;
86172;SDS011;76822;46.880;8.642;2024-03-25T17:40:04;171.30;;;64.17;;
86172;SDS011;76822;46.880;8.642;2024-03-25T17:43:31;143.43;;;59.40;;
86172;SDS011;76822;46.880;8.642;2024-03-25T17:46:52;209.00;;;69.67;;
86172;SDS011;76822;46.880;8.642;2024-03-25T17:50:12;151.90;;;61.37;;
86172;SDS011;76822;46.880;8.642;2024-03-25T17:53:33;169.60;;;63.80;;
86172;SDS011;76822;46.880;8.642;2024-03-25T17:56:53;130.77;;;55.07;;
86172;SDS011;76822;46.880;8.642;2024-03-25T18:00:13;158.80;;;62.03;;
86172;SDS011;76822;46.880;8.642;2024-03-25T18:03:34;157.73;;;62.23;;
86172;SDS011;76822;46.880;8.642;2024-03-25T18:06:55;224.90;;;71.27;;
86172;SDS011;76822;46.880;8.642;2024-03-25T18:10:15;128.33;;;58.27;;
86172;SDS011;76822;46.880;8.642;2024-03-25T18:13:36;156.30;;;61.73;;
86172;SDS011;76822;46.880;8.642;2024-03-25T18:16:56;188.87;;;66.53;;
86172;SDS011;76822;46.880;8.642;2024-03-25T18:20:16;159.57;;;60.53;;
86172;SDS011;76822;46.880;8.642;2024-03-25T18:23:37;152.43;;;59.17;;
86172;SDS011;76822;46.880;8.642;2024-03-25T18:26:57;175.30;;;62.87;;
86172;SDS011;76822;46.880;8.642;2024-03-25T18:30:17;181.37;;;63.73;;
86172;SDS011;76822;46.880;8.642;2024-03-25T18:33:38;172.03;;;62.10;;
86172;SDS011;76822;46.880;8.642;2024-03-25T18:36:58;162.10;;;59.87;;
86172;SDS011;76822;46.880;8.642;2024-03-25T18:40:19;135.20;;;57.63;;
86172;SDS011;76822;46.880;8.642;2024-03-25T18:43:41;156.33;;;61.43;;
86172;SDS011;76822;46.880;8.642;2024-03-25T18:47:01;197.80;;;66.87;;
86172;SDS011;76822;46.880;8.642;2024-03-25T18:50:22;182.87;;;65.03;;
86172;SDS011;76822;46.880;8.642;2024-03-25T18:53:43;137.67;;;58.37;;
86172;SDS011;76822;46.880;8.642;2024-03-25T18:57:03;129.60;;;58.83;;
86172;SDS011;76822;46.880;8.642;2024-03-25T19:00:23;180.67;;;69.77;;
86172;SDS011;76822;46.880;8.642;2024-03-25T19:03:44;203.10;;;67.87;;
86172;SDS011;76822;46.880;8.642;2024-03-25T19:07:04;143.73;;;58.50;;
86172;SDS011;76822;46.880;8.642;2024-03-25T19:10:25;179.27;;;63.93;;
86172;SDS011;76822;46.880;8.642;2024-03-25T19:13:45;139.33;;;57.67;;
86172;SDS011;76822;46.880;8.642;2024-03-25T19:17:05;140.30;;;57.87;;